createdAt,value
2019-03-11T00:01:58.930Z,29.07
2019-03-11T00:04:30.450Z,31.82
2019-03-11T00:07:01.781Z,27.13
2019-03-11T00:09:33.072Z,30.82
2019-03-11T00:12:04.522Z,25.27
2019-03-11T00:14:35.872Z,23.05
2019-03-11T00:17:07.302Z,24.37
2019-03-11T00:19:38.578Z,25.95
2019-03-11T00:22:09.673Z,25.45
2019-03-11T00:24:40.801Z,25.97
2019-03-11T00:27:12.238Z,20.40
2019-03-11T00:29:43.284Z,18.57
2019-03-11T00:32:14.626Z,19.05
2019-03-11T00:34:45.958Z,13.35
2019-03-11T00:37:17.993Z,16.50
2019-03-11T00:39:49.373Z,16.23
2019-03-11T00:42:20.617Z,21.07
2019-03-11T00:44:51.878Z,15.25
2019-03-11T00:47:23.110Z,15.28
2019-03-11T00:49:55.145Z,11.12
2019-03-11T00:52:27.463Z,12.35
2019-03-11T00:55:01.771Z,13.10
2019-03-11T00:57:33.009Z,15.18
2019-03-11T01:00:09.914Z,13.20
2019-03-11T01:02:41.168Z,14.25
2019-03-11T01:05:12.483Z,12.55
2019-03-11T01:07:43.733Z,15.88
2019-03-11T01:10:15.799Z,13.70
2019-03-11T01:12:47.048Z,13.20
2019-03-11T01:15:18.141Z,15.98
2019-03-11T01:17:50.338Z,14.25
2019-03-11T01:20:22.490Z,15.30
2019-03-11T01:22:53.723Z,14.65
2019-03-11T01:25:25.039Z,19.07
2019-03-11T01:27:58.070Z,19.02
2019-03-11T01:30:29.267Z,18.27
2019-03-11T01:33:00.440Z,22.13
2019-03-11T01:35:31.863Z,19.60
2019-03-11T01:38:04.297Z,21.02
2019-03-11T01:40:37.430Z,20.80
2019-03-11T01:43:08.818Z,22.77
2019-03-11T01:45:43.501Z,25.60
2019-03-11T01:48:14.857Z,27.22
2019-03-11T01:50:45.956Z,27.50
2019-03-11T01:53:17.139Z,32.17
2019-03-11T01:55:48.489Z,27.98
2019-03-11T01:58:19.474Z,26.35
2019-03-11T02:00:50.786Z,26.37
2019-03-11T02:03:22.024Z,29.82
2019-03-11T02:05:53.940Z,28.02
2019-03-11T02:08:25.243Z,24.63
2019-03-11T02:10:56.397Z,27.15
2019-03-11T02:13:27.443Z,21.35
2019-03-11T02:15:58.506Z,29.10
2019-03-11T02:18:29.589Z,22.42
2019-03-11T02:21:00.792Z,27.32
2019-03-11T02:23:32.952Z,23.07
2019-03-11T02:26:04.426Z,25.17
2019-03-11T02:28:35.828Z,17.82
2019-03-11T02:31:07.020Z,20.30
2019-03-11T02:33:38.372Z,19.23
2019-03-11T02:36:09.952Z,15.90
2019-03-11T02:38:41.336Z,17.15
2019-03-11T02:41:13.596Z,15.85
2019-03-11T02:43:46.893Z,16.85
2019-03-11T02:46:18.147Z,14.33
2019-03-11T02:48:50.445Z,14.65
2019-03-11T02:51:21.860Z,10.93
2019-03-11T02:53:53.218Z,14.18
2019-03-11T02:56:24.470Z,11.05
2019-03-11T02:58:55.711Z,9.58
2019-03-11T03:01:47.228Z,11.45
2019-03-11T03:04:23.194Z,8.08
2019-03-11T03:07:01.195Z,10.70
2019-03-11T03:09:32.442Z,7.72
2019-03-11T03:12:03.816Z,11.55
2019-03-11T03:14:35.090Z,7.08
2019-03-11T03:17:06.588Z,14.73
2019-03-11T03:19:37.747Z,8.38
2019-03-11T03:22:09.004Z,7.08
2019-03-11T03:24:40.142Z,7.85
2019-03-11T03:27:11.301Z,8.85
2019-03-11T03:29:42.513Z,7.42
2019-03-11T03:32:13.826Z,9.40
2019-03-11T03:34:45.243Z,13.18
2019-03-11T03:37:16.379Z,12.63
2019-03-11T03:39:47.779Z,12.75
2019-03-11T03:42:18.978Z,16.12
2019-03-11T03:45:10.279Z,13.83
2019-03-11T03:47:41.720Z,10.48
2019-03-11T03:50:12.974Z,10.58
2019-03-11T03:52:44.161Z,14.35
2019-03-11T03:55:15.375Z,14.13
2019-03-11T03:57:46.553Z,16.42
2019-03-11T04:00:17.658Z,12.13
2019-03-11T04:02:48.916Z,11.10
2019-03-11T04:05:20.128Z,13.50
2019-03-11T04:07:51.327Z,12.58
2019-03-11T04:10:22.439Z,14.03
2019-03-11T04:12:53.602Z,12.25
2019-03-11T04:15:24.732Z,10.40
2019-03-11T04:17:57.417Z,13.55
2019-03-11T04:20:28.653Z,12.68
2019-03-11T04:22:59.625Z,15.58
2019-03-11T04:25:30.755Z,14.85
2019-03-11T04:28:04.051Z,17.17
2019-03-11T04:30:35.598Z,13.35
2019-03-11T04:33:07.837Z,17.95
2019-03-11T04:35:39.177Z,17.00
2019-03-11T04:38:16.872Z,12.70
2019-03-11T04:40:50.222Z,11.88
2019-03-11T04:43:21.694Z,9.95
2019-03-11T04:45:54.952Z,15.80
2019-03-11T04:48:26.302Z,16.57
2019-03-11T04:50:57.951Z,21.73
2019-03-11T04:53:29.216Z,15.00
2019-03-11T04:56:02.631Z,16.23
2019-03-11T04:58:34.058Z,10.53
2019-03-11T05:01:05.350Z,16.27
2019-03-11T05:03:36.851Z,12.75
2019-03-11T05:06:07.908Z,15.35
2019-03-11T05:08:39.062Z,14.68
2019-03-11T05:11:11.430Z,16.85
2019-03-11T05:13:42.684Z,13.48
2019-03-11T05:16:15.958Z,15.08
2019-03-11T05:18:46.908Z,11.93
2019-03-11T05:21:19.216Z,13.68
2019-03-11T05:23:50.538Z,10.05
2019-03-11T05:26:21.760Z,10.68
2019-03-11T05:28:52.731Z,10.45
2019-03-11T05:31:24.363Z,10.38
2019-03-11T05:33:56.428Z,10.20
2019-03-11T05:36:28.692Z,9.75
2019-03-11T05:39:00.156Z,11.65
2019-03-11T05:41:34.168Z,8.25
2019-03-11T05:44:09.211Z,9.83
2019-03-11T05:46:41.679Z,14.98
2019-03-11T05:49:13.181Z,14.07
2019-03-11T05:51:45.506Z,17.23
2019-03-11T05:54:16.707Z,18.80
2019-03-11T05:56:47.809Z,22.65
2019-03-11T05:59:21.293Z,23.85
2019-03-11T06:01:54.183Z,21.17
2019-03-11T06:04:27.163Z,23.40
2019-03-11T06:06:58.610Z,26.37
2019-03-11T06:09:30.582Z,18.12
2019-03-11T06:12:01.928Z,23.45
2019-03-11T06:14:33.226Z,24.43
2019-03-11T06:17:05.769Z,32.83
2019-03-11T06:22:11.222Z,25.97
2019-03-11T06:24:42.541Z,29.48
2019-03-11T06:27:13.910Z,27.30
2019-03-11T06:29:45.378Z,22.93
2019-03-11T06:32:17.330Z,19.65
2019-03-11T06:34:48.423Z,22.82
2019-03-11T06:37:20.117Z,17.20
2019-03-11T06:39:51.380Z,14.78
2019-03-11T06:42:24.580Z,13.62
2019-03-11T06:44:56.025Z,25.93
2019-03-11T06:47:30.981Z,14.93
2019-03-11T06:50:06.724Z,21.75
2019-03-11T06:52:38.928Z,15.72
2019-03-11T06:55:12.355Z,20.45
2019-03-11T06:57:44.041Z,16.60
2019-03-11T07:00:21.459Z,18.73
2019-03-11T07:02:59.304Z,13.88
2019-03-11T07:05:32.021Z,13.43
2019-03-11T07:08:03.155Z,18.17
2019-03-11T07:10:41.266Z,13.93
2019-03-11T07:13:12.947Z,11.70
2019-03-11T07:15:44.493Z,9.33
2019-03-11T07:18:16.370Z,16.05
2019-03-11T07:20:48.575Z,14.93
2019-03-11T07:23:19.647Z,16.65
2019-03-11T07:25:51.024Z,10.30
2019-03-11T07:28:23.193Z,17.40
2019-03-11T07:30:54.433Z,15.18
2019-03-11T07:33:25.660Z,10.05
2019-03-11T07:35:56.706Z,16.90
2019-03-11T07:38:28.262Z,18.32
2019-03-11T07:40:59.641Z,15.83
2019-03-11T07:43:32.681Z,16.90
2019-03-11T07:46:06.130Z,14.93
2019-03-11T07:48:42.084Z,16.60
2019-03-11T07:51:13.444Z,14.53
2019-03-11T07:53:45.884Z,22.48
2019-03-11T07:56:18.473Z,18.15
2019-03-11T07:58:51.757Z,19.75
2019-03-11T08:01:23.886Z,13.37
2019-03-11T08:03:56.818Z,16.20
2019-03-11T08:06:29.389Z,17.67
2019-03-11T08:09:05.909Z,11.60
2019-03-11T08:11:37.311Z,20.68
2019-03-11T08:14:10.504Z,19.90
2019-03-11T08:16:43.193Z,25.83
2019-03-11T08:19:15.795Z,24.18
2019-03-11T08:21:49.672Z,15.63
2019-03-11T08:24:33.103Z,17.15
2019-03-11T08:27:07.549Z,20.30
2019-03-11T08:29:40.858Z,13.48
2019-03-11T08:32:12.197Z,18.87
2019-03-11T08:34:43.416Z,24.40
2019-03-11T08:37:15.788Z,36.45
2019-03-11T08:39:47.998Z,26.68
2019-03-11T08:42:20.230Z,30.20
2019-03-11T08:44:53.403Z,26.97
2019-03-11T08:47:25.736Z,17.52
2019-03-11T08:49:58.067Z,20.60
2019-03-11T08:52:29.168Z,12.47
2019-03-11T08:55:06.532Z,20.72
2019-03-11T08:57:40.041Z,15.50
2019-03-11T09:00:22.644Z,12.88
2019-03-11T09:02:53.881Z,13.85
2019-03-11T09:05:25.662Z,18.35
2019-03-11T09:07:58.310Z,18.85
2019-03-11T09:10:30.040Z,13.75
2019-03-11T09:13:01.446Z,15.70
2019-03-11T09:15:33.816Z,16.77
2019-03-11T09:18:05.293Z,15.13
2019-03-11T09:20:36.582Z,14.65
2019-03-11T09:23:09.904Z,60.88
2019-03-11T09:25:41.223Z,21.93
2019-03-11T09:28:13.425Z,16.12
2019-03-11T09:30:48.952Z,41.77
2019-03-11T09:33:20.495Z,17.95
2019-03-11T09:35:51.818Z,16.25
2019-03-11T09:38:25.035Z,13.30
2019-03-11T09:40:56.218Z,12.90
2019-03-11T09:43:27.755Z,19.67
2019-03-11T09:46:01.255Z,14.40
2019-03-11T09:48:32.595Z,18.70
2019-03-11T09:51:04.357Z,14.70
2019-03-11T09:53:38.131Z,13.30
2019-03-11T09:56:11.350Z,10.95
2019-03-11T09:58:42.625Z,7.60
2019-03-11T10:01:18.358Z,14.38
2019-03-11T10:03:49.972Z,15.78
2019-03-11T10:06:23.517Z,14.85
2019-03-11T10:08:54.673Z,16.70
2019-03-11T10:11:26.246Z,15.25
2019-03-11T10:13:57.863Z,17.92
2019-03-11T10:16:29.181Z,24.12
2019-03-11T10:19:04.638Z,20.72
2019-03-11T10:21:36.103Z,14.55
2019-03-11T10:24:16.681Z,17.55
2019-03-11T10:26:52.148Z,25.02
2019-03-11T10:29:23.352Z,13.47
2019-03-11T10:31:58.516Z,17.37
2019-03-11T10:34:31.016Z,15.43
2019-03-11T10:37:03.940Z,15.70
2019-03-11T10:39:36.385Z,12.88
2019-03-11T10:42:07.794Z,14.15
2019-03-11T10:44:40.067Z,19.92
2019-03-11T10:47:13.311Z,22.10
2019-03-11T10:49:44.928Z,18.55
2019-03-11T10:52:18.326Z,23.05
2019-03-11T10:54:50.905Z,14.13
2019-03-11T10:57:22.434Z,11.30
2019-03-11T10:59:55.856Z,21.00
2019-03-11T11:02:27.361Z,24.30
2019-03-11T11:04:58.649Z,16.15
2019-03-11T11:07:31.236Z,14.05
2019-03-11T11:10:08.854Z,23.45
2019-03-11T11:12:41.670Z,20.32
2019-03-11T11:15:15.318Z,22.37
2019-03-11T11:20:21.615Z,15.83
2019-03-11T11:23:03.686Z,16.37
2019-03-11T11:25:35.981Z,20.00
2019-03-11T11:28:13.565Z,28.52
2019-03-11T11:30:48.636Z,30.30
2019-03-11T11:33:22.033Z,21.02
2019-03-11T11:35:53.337Z,27.98
2019-03-11T11:38:26.368Z,24.90
2019-03-11T11:40:57.700Z,24.07
2019-03-11T11:43:29.157Z,21.70
2019-03-11T11:46:00.545Z,16.17
2019-03-11T11:48:33.035Z,15.58
2019-03-11T11:51:04.650Z,16.52
2019-03-11T11:53:37.004Z,27.48
2019-03-11T11:56:13.414Z,25.95
2019-03-11T11:58:50.315Z,31.87
2019-03-11T12:01:22.415Z,19.62
2019-03-11T12:03:54.714Z,27.48
2019-03-11T12:06:28.749Z,20.17
2019-03-11T12:09:00.949Z,23.77
2019-03-11T12:11:33.948Z,26.73
2019-03-11T12:14:08.362Z,18.17
2019-03-11T12:16:39.839Z,21.77
2019-03-11T12:19:11.722Z,32.17
2019-03-11T12:21:44.686Z,19.87
2019-03-11T12:24:19.526Z,30.25
2019-03-11T12:26:50.957Z,45.28
2019-03-11T12:29:22.598Z,33.28
2019-03-11T12:31:55.576Z,23.60
2019-03-11T12:34:28.154Z,34.90
2019-03-11T12:36:59.725Z,24.02
2019-03-11T12:39:31.691Z,34.20
2019-03-11T12:42:04.025Z,28.25
2019-03-11T12:44:35.287Z,22.37
2019-03-11T12:47:08.959Z,19.62
2019-03-11T12:52:17.774Z,21.75
2019-03-11T12:54:49.284Z,16.48
2019-03-11T12:57:21.433Z,26.23
2019-03-11T12:59:54.169Z,18.87
2019-03-11T13:02:26.335Z,27.67
2019-03-11T13:04:59.946Z,30.68
2019-03-11T13:10:20.509Z,15.55
2019-03-11T13:12:52.370Z,18.73
2019-03-11T13:15:29.233Z,15.72
2019-03-11T13:18:29.573Z,24.77
2019-03-11T13:21:05.779Z,30.88
2019-03-11T13:23:41.669Z,22.07
2019-03-11T13:26:19.454Z,28.02
2019-03-11T13:28:51.450Z,31.00
2019-03-11T13:31:25.146Z,28.00
2019-03-11T13:34:00.543Z,21.20
2019-03-11T13:36:41.039Z,24.57
2019-03-11T13:39:13.095Z,37.78
2019-03-11T13:41:47.123Z,37.03
2019-03-11T13:44:19.942Z,19.17
2019-03-11T13:46:58.401Z,20.57
2019-03-11T13:49:36.187Z,22.73
2019-03-11T13:52:11.140Z,23.85
2019-03-11T13:54:47.666Z,23.35
2019-03-11T13:57:22.301Z,23.80
2019-03-11T13:59:57.520Z,12.95
2019-03-11T14:02:32.257Z,25.80
2019-03-11T14:05:06.521Z,27.40
2019-03-11T14:07:42.033Z,28.38
2019-03-11T14:10:15.440Z,20.05
2019-03-11T14:12:49.047Z,21.82
2019-03-11T14:15:23.266Z,13.35
2019-03-11T14:17:57.813Z,6.92
2019-03-11T14:20:37.166Z,12.58
2019-03-11T14:23:11.272Z,14.85
2019-03-11T14:25:44.766Z,7.35
2019-03-11T14:28:30.250Z,5.12
2019-03-11T14:31:10.997Z,7.00
2019-03-11T14:33:52.200Z,7.10
2019-03-11T14:36:24.743Z,10.65
2019-03-11T14:38:57.404Z,35.78
2019-03-11T14:41:28.908Z,21.80
2019-03-11T14:44:00.678Z,26.17
2019-03-11T14:46:32.762Z,47.27
2019-03-11T14:49:04.400Z,24.92
2019-03-11T14:51:37.510Z,22.07
2019-03-11T14:54:10.675Z,21.40
2019-03-11T14:56:42.291Z,28.95
2019-03-11T14:59:13.658Z,16.70
2019-03-11T15:01:45.121Z,19.15
2019-03-11T15:04:19.253Z,14.58
2019-03-11T15:06:52.838Z,16.95
2019-03-11T15:09:24.285Z,16.62
2019-03-11T15:11:55.375Z,23.75
2019-03-11T15:14:28.441Z,9.33
2019-03-11T15:17:01.019Z,18.48
2019-03-11T15:19:33.474Z,44.10
2019-03-11T15:22:05.991Z,11.03
2019-03-11T15:24:38.418Z,15.95
2019-03-11T15:27:09.832Z,15.05
2019-03-11T15:29:41.271Z,14.75
2019-03-11T15:32:13.730Z,30.82
2019-03-11T15:34:45.080Z,26.50
2019-03-11T15:37:22.647Z,28.40
2019-03-11T15:39:55.006Z,41.45
2019-03-11T15:42:26.523Z,35.20
2019-03-11T15:44:58.639Z,40.73
2019-03-11T15:47:29.898Z,39.75
2019-03-11T15:50:01.101Z,56.77
2019-03-11T15:52:35.727Z,56.40
2019-03-11T15:55:12.292Z,17.00
2019-03-11T15:57:44.219Z,8.28
2019-03-11T16:00:22.658Z,8.53
2019-03-11T16:02:53.880Z,14.60
2019-03-11T16:05:25.705Z,15.58
2019-03-11T16:07:57.082Z,19.45
2019-03-11T16:10:29.396Z,12.95
2019-03-11T16:13:00.516Z,13.05
2019-03-11T16:15:31.751Z,15.85
2019-03-11T16:18:02.854Z,11.10
2019-03-11T16:20:34.089Z,7.83
2019-03-11T16:23:07.172Z,8.63
2019-03-11T16:25:38.394Z,8.73
2019-03-11T16:28:10.665Z,12.23
2019-03-11T16:30:42.623Z,16.25
2019-03-11T16:33:14.896Z,64.82
2019-03-11T16:35:46.300Z,23.75
2019-03-11T16:38:18.329Z,25.52
2019-03-11T16:40:50.557Z,18.48
2019-03-11T16:43:23.378Z,13.70
2019-03-11T16:45:56.866Z,13.58
2019-03-11T16:48:28.129Z,8.25
2019-03-11T16:50:59.453Z,8.95
2019-03-11T16:53:31.301Z,8.10
2019-03-11T16:56:03.793Z,19.17
2019-03-11T16:58:34.910Z,23.40
2019-03-11T17:01:07.586Z,25.08
2019-03-11T17:03:38.579Z,68.28
2019-03-11T17:06:09.816Z,122.82
2019-03-11T17:08:41.384Z,67.58
2019-03-11T17:11:12.823Z,53.50
2019-03-11T17:13:43.889Z,27.15
2019-03-11T17:16:16.067Z,19.85
2019-03-11T17:18:49.398Z,17.95
2019-03-11T17:21:20.816Z,18.48
2019-03-11T17:23:51.875Z,16.02
2019-03-11T17:26:23.168Z,32.80
2019-03-11T17:28:54.514Z,26.05
2019-03-11T17:31:25.704Z,10.58
2019-03-11T17:33:56.780Z,8.60
2019-03-11T17:36:32.924Z,8.23
2019-03-11T17:39:10.174Z,7.05
2019-03-11T17:41:41.437Z,7.62
2019-03-11T17:44:12.826Z,12.40
2019-03-11T17:46:44.416Z,6.20
2019-03-11T17:49:15.648Z,4.72
2019-03-11T17:51:47.887Z,4.17
2019-03-11T17:54:18.914Z,4.22
2019-03-11T17:56:55.273Z,7.00
2019-03-11T17:59:28.781Z,7.83
2019-03-11T18:02:00.543Z,11.93
2019-03-11T18:04:31.665Z,3.90
2019-03-11T18:07:03.011Z,6.30
2019-03-11T18:09:35.851Z,5.87
2019-03-11T18:12:07.240Z,3.85
2019-03-11T18:14:40.006Z,8.78
2019-03-11T18:17:15.698Z,7.10
2019-03-11T18:19:47.997Z,3.67
2019-03-11T18:22:19.382Z,5.12
2019-03-11T18:24:53.094Z,4.78
2019-03-11T18:27:29.987Z,4.67
2019-03-11T18:30:01.652Z,6.42
2019-03-11T18:32:39.916Z,6.75
2019-03-11T18:35:11.504Z,4.90
2019-03-11T18:37:44.080Z,5.53
2019-03-11T18:40:16.686Z,8.78
2019-03-11T18:42:47.704Z,21.90
2019-03-11T18:45:18.709Z,39.38
2019-03-11T18:47:51.159Z,24.95
2019-03-11T18:50:25.485Z,30.70
2019-03-11T18:52:58.838Z,14.30
2019-03-11T18:55:29.903Z,6.20
2019-03-11T18:58:02.549Z,3.72
2019-03-11T19:00:33.672Z,4.47
2019-03-11T19:03:05.079Z,4.62
2019-03-11T19:05:37.429Z,4.22
2019-03-11T19:08:10.046Z,5.35
2019-03-11T19:10:41.218Z,4.72
2019-03-11T19:13:12.766Z,4.53
2019-03-11T19:15:44.255Z,4.35
2019-03-11T19:18:17.274Z,5.83
2019-03-11T19:20:48.959Z,4.67
2019-03-11T19:23:20.880Z,3.42
2019-03-11T19:25:52.277Z,4.90
2019-03-11T19:28:23.747Z,6.58
2019-03-11T19:30:56.752Z,7.15
2019-03-11T19:33:28.008Z,4.90
2019-03-11T19:35:59.304Z,4.17
2019-03-11T19:38:30.914Z,6.90
2019-03-11T19:41:03.460Z,7.72
2019-03-11T19:43:34.821Z,6.95
2019-03-11T19:46:05.879Z,3.95
2019-03-11T19:48:38.113Z,4.30
2019-03-11T19:51:09.896Z,5.92
2019-03-11T19:53:41.461Z,4.10
2019-03-11T19:56:14.379Z,4.78
2019-03-11T19:58:47.714Z,3.37
2019-03-11T20:01:19.248Z,3.22
2019-03-11T20:03:50.474Z,3.70
2019-03-11T20:06:21.774Z,3.40
2019-03-11T20:08:52.932Z,5.55
2019-03-11T20:11:25.179Z,3.12
2019-03-11T20:13:56.512Z,2.83
2019-03-11T20:16:27.715Z,3.35
2019-03-11T20:18:58.981Z,4.42
2019-03-11T20:21:30.165Z,4.00
2019-03-11T20:24:02.456Z,5.42
2019-03-11T20:26:33.952Z,6.35
2019-03-11T20:29:06.211Z,8.03
2019-03-11T20:31:38.542Z,12.18
2019-03-11T20:34:09.915Z,23.00
2019-03-11T20:36:41.019Z,23.07
2019-03-11T20:39:11.977Z,18.62
2019-03-11T20:41:44.267Z,31.10
2019-03-11T20:44:15.582Z,23.83
2019-03-11T20:46:46.986Z,25.05
2019-03-11T20:49:18.508Z,20.08
2019-03-11T20:51:50.759Z,19.45
2019-03-11T20:54:21.937Z,12.58
2019-03-11T20:56:53.405Z,9.23
2019-03-11T20:59:27.068Z,7.78
2019-03-11T21:01:58.369Z,6.58
2019-03-11T21:04:29.688Z,5.85
2019-03-11T21:07:01.305Z,8.05
2019-03-11T21:09:32.856Z,10.50
2019-03-11T21:12:04.203Z,6.62
2019-03-11T21:14:35.702Z,9.80
2019-03-11T21:17:07.702Z,4.90
2019-03-11T21:19:38.818Z,9.53
2019-03-11T21:22:09.995Z,10.93
2019-03-11T21:24:41.830Z,8.55
2019-03-11T21:27:14.123Z,6.60
2019-03-11T21:29:48.923Z,11.73
2019-03-11T21:32:20.476Z,8.45
2019-03-11T21:34:55.113Z,5.55
2019-03-11T21:37:26.736Z,6.65
2019-03-11T21:39:58.050Z,7.87
2019-03-11T21:42:33.815Z,6.70
2019-03-11T21:45:06.806Z,6.10
2019-03-11T21:47:41.443Z,9.23
2019-03-11T21:50:18.126Z,6.85
2019-03-11T21:52:50.766Z,4.08
2019-03-11T21:55:25.414Z,4.80
2019-03-11T21:58:12.677Z,5.72
2019-03-11T22:00:36.292Z,5.03
2019-03-11T22:03:07.704Z,4.97
2019-03-11T22:05:40.066Z,6.47
2019-03-11T22:08:11.305Z,4.03
2019-03-11T22:10:43.274Z,6.62
2019-03-11T22:13:15.543Z,4.67
2019-03-11T22:15:48.838Z,8.33
2019-03-11T22:18:22.250Z,6.87
2019-03-11T22:20:53.531Z,12.82
2019-03-11T22:23:25.144Z,4.22
2019-03-11T22:25:57.519Z,8.20
2019-03-11T22:28:30.119Z,3.70
2019-03-11T22:31:02.886Z,4.90
2019-03-11T22:33:35.045Z,4.37
2019-03-11T22:36:06.495Z,6.62
2019-03-11T22:38:39.391Z,4.05
2019-03-11T22:41:10.751Z,5.40
2019-03-11T22:43:41.944Z,4.75
2019-03-11T22:46:13.325Z,5.58
2019-03-11T22:48:44.614Z,8.45
2019-03-11T22:51:16.128Z,8.78
2019-03-11T22:53:51.585Z,8.28
2019-03-11T22:56:21.589Z,8.18
2019-03-11T22:58:52.834Z,4.83
2019-03-11T23:01:25.514Z,6.75
2019-03-11T23:03:56.869Z,6.72
2019-03-11T23:06:28.216Z,4.22
2019-03-11T23:08:59.259Z,7.37
2019-03-11T23:11:30.368Z,5.25
2019-03-11T23:14:01.662Z,5.60
2019-03-11T23:16:32.675Z,5.58
2019-03-11T23:19:03.947Z,7.92
2019-03-11T23:21:35.297Z,6.90
2019-03-11T23:24:07.460Z,5.22
2019-03-11T23:26:38.502Z,4.10
2019-03-11T23:29:09.792Z,3.60
2019-03-11T23:31:40.965Z,3.22
2019-03-11T23:34:12.057Z,5.55
2019-03-11T23:36:43.391Z,6.92
2019-03-11T23:39:14.566Z,4.72
2019-03-11T23:41:45.802Z,6.22
2019-03-11T23:44:16.820Z,6.80
2019-03-11T23:46:48.030Z,13.00
2019-03-11T23:49:19.033Z,7.45
2019-03-11T23:51:50.576Z,9.65
2019-03-11T23:54:21.713Z,7.17
2019-03-11T23:56:52.708Z,6.17
2019-03-11T23:59:23.997Z,7.53
